Time;durP1;ratioP1;P1;durP2;ratioP2;P2;SDS_P1;SDS_P2;PMS_P1;PMS_P2;Temp;Humidity;BMP_temperature;BMP_pressure;BME280_temperature;BME280_humidity;BME280_pressure;Samples;Min_cycle;Max_cycle;Signal;HPM_P1;HPM_P2
2022/06/30 00:00:43;;;;;;;8.02;7.22;;;19.70;99.90;;;-141.84;78.15;19665.47;5070847;28;20220;-60
2022/06/30 00:03:11;;;;;;;8.82;8.02;;;19.60;99.90;;;-141.84;78.50;19622.81;5070494;28;20224;-59
2022/06/30 00:05:39;;;;;;;9.25;8.35;;;19.60;99.90;;;-141.84;77.73;19655.31;5070832;28;20319;-58
2022/06/30 00:08:07;;;;;;;9.02;8.23;;;19.70;99.90;;;-141.84;77.37;19700.03;5070545;28;20308;-60
2022/06/30 00:10:35;;;;;;;8.40;7.68;;;19.70;99.90;;;-141.84;77.95;19641.09;5070070;28;20303;-60
2022/06/30 00:13:04;;;;;;;8.27;7.57;;;19.60;99.90;;;-141.84;77.10;19665.47;5070670;28;20288;-59
2022/06/30 00:15:35;;;;;;;9.50;8.55;;;19.70;99.90;;;-141.84;77.91;19626.88;5070113;28;20428;-59
2022/06/30 00:18:06;;;;;;;8.93;8.13;;;19.70;99.90;;;-141.84;77.55;19624.84;5070403;28;20236;-59
2022/06/30 00:20:35;;;;;;;9.55;8.50;;;19.60;99.90;;;-141.84;77.61;19671.56;5070452;28;20335;-60
2022/06/30 00:23:03;;;;;;;8.32;7.63;;;19.60;99.90;;;-141.84;77.84;19659.38;5072472;28;20231;-59
2022/06/30 00:25:31;;;;;;;8.98;8.18;;;19.60;99.90;;;-141.84;77.04;19673.59;5074517;28;20329;-58
2022/06/30 00:27:59;;;;;;;9.23;8.43;;;19.60;99.90;;;-141.84;76.87;19669.53;5075648;28;20298;-61
2022/06/30 00:30:28;;;;;;;8.40;7.70;;;19.70;99.90;;;-141.84;76.72;19655.31;5074673;28;20251;-60
2022/06/30 00:32:56;;;;;;;7.78;7.18;;;19.60;99.90;;;-141.84;77.53;19653.28;5054317;28;20303;-58
2022/06/30 00:35:25;;;;;;;8.98;8.07;;;19.60;99.90;;;-141.84;76.78;19700.03;5054195;28;20217;-59
2022/06/30 00:37:54;;;;;;;8.43;7.72;;;19.60;99.90;;;-141.84;77.37;19647.19;5054577;28;20323;-60
2022/06/30 00:40:22;;;;;;;8.60;7.90;;;19.60;99.90;;;-141.84;77.17;19687.84;5070216;28;20200;-58
2022/06/30 00:42:50;;;;;;;8.52;7.72;;;19.60;99.90;;;-141.84;77.66;19630.94;5074597;28;20200;-60
2022/06/30 00:45:18;;;;;;;8.68;7.88;;;19.60;99.90;;;-141.84;77.53;19647.19;5074024;28;20231;-59
2022/06/30 00:47:47;;;;;;;9.18;8.27;;;19.50;99.90;;;-141.84;77.02;19673.59;5055193;28;20225;-59
2022/06/30 00:50:15;;;;;;;7.80;7.00;;;19.50;99.90;;;-141.84;77.67;19641.09;5054039;28;20225;-60
2022/06/30 00:52:46;;;;;;;8.25;7.53;;;19.50;99.90;;;-141.84;78.16;19649.22;5053942;28;20666;-58
2022/06/30 00:55:16;;;;;;;8.90;8.18;;;19.50;99.90;;;-141.84;77.87;19647.19;5053839;28;20277;-61
2022/06/30 00:57:45;;;;;;;9.35;8.48;;;19.50;99.90;;;-141.84;77.55;19647.19;5054813;28;20178;-59
2022/06/30 01:00:15;;;;;;;7.95;7.25;;;19.50;99.90;;;-141.84;77.45;19608.56;5053768;28;20236;-58
2022/06/30 01:02:45;;;;;;;8.50;7.80;;;19.50;99.90;;;-141.84;77.53;19673.59;5053740;28;20660;-60
2022/06/30 01:05:13;;;;;;;8.73;7.93;;;19.50;99.90;;;-141.84;77.85;19681.75;5053540;28;20225;-59
2022/06/30 01:07:44;;;;;;;8.90;8.10;;;19.50;99.90;;;-141.84;77.99;19630.94;5054088;28;20221;-59
2022/06/30 01:12:59;;;;;;;8.95;8.07;;;19.50;99.90;;;-141.84;77.49;19618.75;5073544;28;20254;-59
2022/06/30 01:15:27;;;;;;;7.75;7.13;;;19.50;99.90;;;-141.84;77.50;19637.03;5073272;28;20741;-59
2022/06/30 01:17:55;;;;;;;7.65;7.03;;;19.50;99.90;;;-141.84;77.58;19665.47;5073981;28;20274;-61
2022/06/30 01:20:28;;;;;;;8.70;7.88;;;19.50;99.90;;;-141.84;77.11;19675.63;5073236;28;20362;-59
2022/06/30 01:22:59;;;;;;;8.65;7.95;;;19.60;99.90;;;-141.84;75.76;19693.94;5073361;28;20682;-58
2022/06/30 01:25:28;;;;;;;8.38;7.68;;;19.70;99.90;;;-141.84;76.21;19695.97;5073009;28;20296;-59
2022/06/30 01:27:57;;;;;;;8.27;7.50;;;19.70;99.90;;;-141.84;76.37;19639.06;5074168;28;20287;-59
2022/06/30 01:30:25;;;;;;;8.27;7.47;;;19.60;99.90;;;-141.84;76.49;19667.50;5073136;28;20224;-59
2022/06/30 01:32:53;;;;;;;8.63;7.82;;;19.60;99.90;;;-141.84;76.53;19655.31;5053264;28;20226;-59
2022/06/30 01:35:22;;;;;;;9.02;8.18;;;19.60;99.90;;;-141.84;75.33;19679.72;5051631;28;20604;-59
2022/06/30 01:37:53;;;;;;;8.48;7.78;;;19.70;99.90;;;-141.84;75.62;19671.56;5053410;28;20304;-59
2022/06/30 01:40:25;;;;;;;8.95;8.10;;;19.70;99.90;;;-141.84;75.16;19702.06;5072740;28;20204;-60
2022/06/30 01:42:53;;;;;;;8.93;8.07;;;19.70;99.90;;;-141.84;75.75;19647.19;5073387;28;20189;-59
2022/06/30 01:45:24;;;;;;;8.73;7.93;;;19.70;99.90;;;-141.84;76.13;19628.91;5072638;28;20236;-60
2022/06/30 01:47:53;;;;;;;10.93;8.38;;;19.60;99.90;;;-141.84;76.80;19649.22;5053540;28;20311;-60
2022/06/30 01:50:25;;;;;;;9.23;8.30;;;19.60;99.90;;;-141.84;76.56;19655.31;5052784;28;20225;-60
2022/06/30 01:52:54;;;;;;;9.25;8.45;;;19.60;99.90;;;-141.84;75.24;19704.09;5052901;28;20269;-59
2022/06/30 01:55:25;;;;;;;8.75;8.05;;;19.60;99.90;;;-141.84;75.96;19669.53;5052815;28;20212;-59
2022/06/30 01:57:54;;;;;;;8.70;7.90;;;19.60;99.90;;;-141.84;75.75;19661.41;5053471;28;20724;-60
2022/06/30 02:00:25;;;;;;;9.35;8.25;;;19.60;99.90;;;-141.84;76.18;19667.50;5052420;28;20592;-59
2022/06/30 02:02:54;;;;;;;8.77;8.07;;;19.60;99.90;;;-141.84;75.36;19695.97;5052892;28;20523;-60
2022/06/30 02:05:24;;;;;;;8.60;7.80;;;19.60;99.90;;;-141.84;75.84;19663.44;5052571;28;20304;-59
2022/06/30 02:07:54;;;;;;;8.15;7.45;;;19.60;99.90;;;-141.84;77.05;19606.53;5053053;28;20542;-60
2022/06/30 02:10:25;;;;;;;8.25;7.55;;;19.50;99.90;;;-141.84;77.65;19630.94;5072561;28;20291;-59
2022/06/30 02:12:54;;;;;;;8.55;7.75;;;19.40;99.90;;;-141.84;78.18;19616.72;5072787;28;20219;-60
2022/06/30 02:15:24;;;;;;;9.02;8.23;;;19.40;99.90;;;-141.84;77.55;19632.97;5072090;28;20231;-60
2022/06/30 02:17:54;;;;;;;8.07;7.32;;;19.30;99.90;;;-141.84;77.18;19624.84;5073087;28;20256;-59
2022/06/30 02:20:24;;;;;;;8.95;8.10;;;19.40;99.90;;;-141.84;76.24;19675.63;5072325;28;20229;-59
2022/06/30 02:22:56;;;;;;;8.50;7.65;;;19.40;99.90;;;-141.84;75.89;19683.78;5072377;28;20254;-59
2022/06/30 02:25:29;;;;;;;8.50;7.70;;;19.50;99.90;;;-141.84;76.22;19673.59;5072108;28;20272;-60
2022/06/30 02:27:57;;;;;;;7.75;6.95;;;19.50;99.90;;;-141.84;77.00;19635.00;5073041;28;20276;-59
2022/06/30 02:30:26;;;;;;;8.63;7.70;;;19.50;99.90;;;-141.84;76.59;19641.09;5071738;28;20324;-58
2022/06/30 02:32:54;;;;;;;8.27;7.57;;;19.50;99.90;;;-141.84;76.81;19645.16;5072172;28;20665;-59
2022/06/30 02:35:22;;;;;;;7.88;7.28;;;19.50;99.90;;;-141.84;76.49;19632.97;5071737;28;20259;-58
2022/06/30 02:37:51;;;;;;;8.25;7.55;;;19.40;99.90;;;-141.84;75.45;19710.19;5072298;28;20236;-59
2022/06/30 02:40:19;;;;;;;8.27;7.60;;;19.50;99.90;;;-141.84;75.95;19673.59;5071536;28;20240;-60
2022/06/30 02:42:49;;;;;;;8.40;7.70;;;19.50;99.90;;;-141.84;76.04;19683.78;5072464;28;20267;-60
2022/06/30 02:45:17;;;;;;;7.95;7.22;;;19.50;99.90;;;-141.84;76.60;19673.59;5071120;28;20751;-60
2022/06/30 02:47:45;;;;;;;6.97;6.30;;;19.50;99.90;;;-141.84;77.00;19624.84;5053059;28;20260;-60
2022/06/30 02:50:14;;;;;;;7.68;7.05;;;19.40;99.90;;;-141.84;74.59;19698.00;5051654;28;20323;-60
2022/06/30 02:52:43;;;;;;;7.35;6.75;;;19.60;99.90;;;-141.84;75.20;19671.56;5051953;28;20300;-60
2022/06/30 02:55:11;;;;;;;7.95;7.25;;;19.60;99.90;;;-141.84;75.87;19651.25;5052163;28;20205;-61
2022/06/30 02:57:39;;;;;;;7.10;6.40;;;19.50;99.90;;;-141.84;75.16;19687.84;5052158;28;20251;-59
2022/06/30 03:00:12;;;;;;;7.22;6.63;;;19.50;99.90;;;-141.84;74.29;19671.56;5051594;28;20656;-59
2022/06/30 03:02:40;;;;;;;8.10;7.30;;;19.60;99.90;;;-141.84;74.20;19675.63;5051602;28;20661;-60
2022/06/30 03:05:10;;;;;;;7.40;6.70;;;19.60;99.90;;;-141.84;74.61;19710.19;5059120;28;20296;-58
2022/06/30 03:07:39;;;;;;;7.03;6.32;;;19.60;99.90;;;-141.84;74.57;19665.47;5071693;28;20303;-60
2022/06/30 03:10:08;;;;;;;7.18;6.55;;;19.60;99.90;;;-141.84;75.68;19626.88;5072051;28;20232;-59
2022/06/30 03:12:37;;;;;;;7.55;6.70;;;19.50;99.90;;;-141.84;75.76;19628.91;5070927;28;20255;-60
2022/06/30 03:15:07;;;;;;;6.75;6.22;;;19.50;99.90;;;-141.84;76.17;19671.56;5071340;28;20232;-59
2022/06/30 03:17:37;;;;;;;7.25;6.65;;;19.50;99.90;;;-141.84;75.58;19645.16;5071501;28;20248;-60
2022/06/30 03:20:06;;;;;;;7.57;6.90;;;19.50;99.90;;;-141.84;76.57;19610.59;5071416;28;20216;-60
2022/06/30 03:22:34;;;;;;;7.68;6.97;;;19.50;99.90;;;-141.84;75.51;19659.38;5071187;28;21189;-60
2022/06/30 03:25:03;;;;;;;7.88;6.85;;;19.50;99.90;;;-141.84;75.72;19665.47;5071824;28;20284;-61
2022/06/30 03:27:31;;;;;;;7.18;6.57;;;19.50;99.90;;;-141.84;76.21;19620.78;5071067;28;20235;-60
2022/06/30 03:29:59;;;;;;;7.32;6.70;;;19.50;99.90;;;-141.84;75.95;19635.00;5071683;28;20251;-60
2022/06/30 03:32:27;;;;;;;7.35;6.53;;;19.50;99.90;;;-141.84;76.49;19586.22;5070522;28;20259;-60
2022/06/30 03:34:57;;;;;;;6.75;6.15;;;19.50;99.90;;;-141.84;76.46;19653.28;5071187;28;20295;-58
2022/06/30 03:37:30;;;;;;;7.15;6.55;;;19.50;99.90;;;-141.84;77.13;19614.66;5071243;28;20207;-59
2022/06/30 03:39:59;;;;;;;7.43;6.82;;;19.40;99.90;;;-141.84;76.10;19626.88;5071341;28;20240;-61
2022/06/30 03:42:27;;;;;;;7.25;6.55;;;19.40;99.90;;;-141.84;76.93;19610.59;5070398;28;20236;-61
2022/06/30 03:44:55;;;;;;;7.72;6.72;;;19.40;99.90;;;-141.84;76.58;19626.88;5070777;28;20253;-60
2022/06/30 03:47:23;;;;;;;7.25;6.55;;;19.40;99.90;;;-141.84;74.89;19689.88;5054539;28;20308;-60
2022/06/30 03:49:51;;;;;;;8.35;6.35;;;19.50;99.90;;;-141.84;74.50;19695.97;5050576;28;20309;-59
2022/06/30 03:52:21;;;;;;;7.80;7.00;;;19.60;99.90;;;-141.84;74.87;19671.56;5050659;28;20288;-59
2022/06/30 03:54:49;;;;;;;7.00;6.40;;;19.60;99.90;;;-141.84;75.54;19661.41;5051060;28;20202;-60
2022/06/30 03:57:17;;;;;;;6.43;5.88;;;19.60;99.90;;;-141.84;74.84;19665.47;5049408;28;20312;-60
2022/06/30 03:59:45;;;;;;;6.53;6.03;;;19.60;99.90;;;-141.84;74.51;19720.34;5051119;28;20260;-59
2022/06/30 04:02:13;;;;;;;6.20;5.70;;;19.60;99.90;;;-141.84;74.89;19667.50;5064556;28;20309;-59
2022/06/30 04:04:41;;;;;;;7.38;6.78;;;19.70;99.90;;;-141.84;73.25;19710.19;5070698;28;20221;-60
2022/06/30 04:07:10;;;;;;;6.57;6.07;;;19.80;99.90;;;-141.84;73.01;19720.34;5070818;28;20330;-60
2022/06/30 04:09:39;;;;;;;6.78;6.07;;;19.90;99.90;;;-141.84;71.69;19738.66;5070687;28;20256;-59
2022/06/30 04:12:11;;;;;;;6.97;5.70;;;20.10;99.90;;;-141.84;69.78;19795.53;5070014;28;20634;-60
2022/06/30 04:14:40;;;;;;;6.63;6.03;;;20.30;99.90;;;-141.84;68.80;19805.72;5070289;28;20231;-59
2022/06/30 04:17:08;;;;;;;5.95;5.55;;;20.40;99.90;;;-141.84;69.37;19813.84;5070224;28;20304;-59
2022/06/30 04:19:37;;;;;;;7.20;6.47;;;20.50;99.90;;;-141.84;69.39;19791.47;5070738;28;20220;-60
2022/06/30 04:22:05;;;;;;;6.60;6.07;;;20.40;99.90;;;-141.84;69.41;19779.28;5070947;28;20208;-60
2022/06/30 04:24:34;;;;;;;6.60;6.00;;;20.30;99.90;;;-141.84;68.95;19787.41;5069950;28;20323;-60
2022/06/30 04:27:06;;;;;;;5.47;5.07;;;20.20;99.90;;;-141.84;69.59;19789.44;5069800;28;20286;-60
2022/06/30 04:29:34;;;;;;;6.35;5.75;;;20.20;99.90;;;-141.84;69.89;19742.72;5070677;28;20228;-60
2022/06/30 04:34:48;;;;;;;5.93;5.35;;;20.10;99.90;;;-141.84;69.35;19789.44;5069869;28;20271;-59
2022/06/30 04:37:16;;;;;;;6.40;5.80;;;20.20;99.90;;;-141.84;69.13;19803.69;5069997;28;20496;-59
2022/06/30 04:39:44;;;;;;;5.63;5.22;;;20.10;99.90;;;-141.84;68.93;19811.81;5070510;28;20215;-59
2022/06/30 04:42:13;;;;;;;6.32;5.72;;;20.20;99.90;;;-141.84;66.93;19876.84;5069472;28;20252;-60
2022/06/30 04:44:42;;;;;;;6.00;5.40;;;20.20;99.90;;;-141.84;66.96;19848.38;5069827;28;20242;-59
2022/06/30 04:47:10;;;;;;;5.97;5.47;;;20.40;99.90;;;-141.84;65.37;19893.09;5055090;28;20332;-58
2022/06/30 04:49:38;;;;;;;6.70;5.88;;;20.50;99.90;;;-141.84;64.13;19937.81;5050200;28;20306;-59
2022/06/30 04:52:07;;;;;;;6.43;5.90;;;20.70;99.90;;;-141.84;64.55;19903.25;5049972;28;20335;-60
2022/06/30 04:54:35;;;;;;;5.63;5.13;;;20.70;99.90;;;-141.84;64.22;19941.88;5049580;28;20266;-59
2022/06/30 04:57:05;;;;;;;5.80;5.30;;;20.80;99.90;;;-141.84;62.97;19956.09;5052107;28;20216;-59
2022/06/30 04:59:34;;;;;;;5.97;5.38;;;21.00;99.90;;;-141.84;62.30;19992.69;5070018;28;20283;-60
2022/06/30 05:02:02;;;;;;;5.78;5.28;;;21.10;99.90;;;-141.84;60.98;20039.44;5069840;28;20304;-59
2022/06/30 05:04:31;;;;;;;5.53;5.05;;;21.30;99.90;;;-141.84;59.29;20098.38;5069841;28;20232;-60
2022/06/30 05:06:59;;;;;;;5.90;5.15;;;21.60;99.90;;;-141.84;57.60;20187.81;5070456;28;20201;-60
2022/06/30 05:09:27;;;;;;;5.82;5.32;;;21.90;99.90;;;-141.84;54.79;20344.31;5072260;28;20680;-59
2022/06/30 05:11:56;;;;;;;5.45;5.03;;;22.50;99.90;;;-141.84;52.73;20511.00;5073059;28;20548;-58
2022/06/30 05:14:24;;;;;;;5.53;5.03;;;23.10;99.90;;;-141.84;49.45;20693.94;5073129;28;20235;-58
2022/06/30 05:16:53;;;;;;;5.22;4.72;;;23.90;99.90;;;-141.84;47.59;20854.53;5073182;28;20239;-60
2022/06/30 05:19:21;;;;;;;4.75;4.35;;;24.60;99.90;;;-141.84;45.44;20978.56;5073497;28;20225;-59
2022/06/30 05:21:50;;;;;;;5.05;4.60;;;25.10;99.90;;;-141.84;44.82;21039.53;5073576;28;20735;-58
2022/06/30 05:27:04;;;;;;;10.20;5.13;;;25.90;99.90;;;-141.84;43.52;21173.72;5072888;28;20227;-59
2022/06/30 05:29:32;;;;;;;5.70;5.10;;;26.20;99.90;;;-141.84;42.78;21257.09;5072951;28;20604;-59
2022/06/30 05:32:02;;;;;;;5.50;5.00;;;26.30;99.90;;;-141.84;41.91;21301.81;5072917;28;20228;-59
2022/06/30 05:34:30;;;;;;;6.15;5.55;;;26.40;99.90;;;-141.84;42.45;21230.66;5072760;28;20291;-59
2022/06/30 05:36:59;;;;;;;6.53;5.88;;;26.30;99.90;;;-141.84;44.00;21122.91;5073559;28;20201;-58
2022/06/30 05:39:28;;;;;;;6.57;5.97;;;26.10;99.90;;;-141.84;44.13;21094.44;5072948;28;20282;-60
2022/06/30 05:41:56;;;;;;;6.35;5.75;;;25.90;99.90;;;-141.84;44.01;21118.84;5072868;28;20262;-59
2022/06/30 05:44:24;;;;;;;6.45;5.63;;;25.80;99.90;;;-141.84;44.67;21029.38;5072664;28;20300;-58
2022/06/30 05:46:53;;;;;;;5.70;5.30;;;25.40;99.90;;;-141.84;45.72;20893.16;5060611;28;20224;-59
2022/06/30 05:49:24;;;;;;;6.90;6.20;;;25.40;99.90;;;-141.84;46.69;20878.94;5052940;28;20637;-59
2022/06/30 05:51:52;;;;;;;7.00;6.40;;;25.30;99.90;;;-141.84;47.68;20822.03;5053319;28;20189;-60
2022/06/30 05:54:21;;;;;;;6.45;5.80;;;24.60;99.90;;;-141.84;48.38;20801.69;5063603;28;20221;-60
2022/06/30 05:56:49;;;;;;;7.32;6.63;;;24.70;99.90;;;-141.84;48.12;20750.88;5072099;28;20256;-59
2022/06/30 05:59:18;;;;;;;7.00;6.35;;;24.40;99.90;;;-141.84;48.89;20693.94;5072532;28;20284;-59
2022/06/30 06:01:46;;;;;;;7.85;6.20;;;24.40;99.90;;;-141.84;49.98;20622.81;5072557;28;20220;-60
2022/06/30 06:04:14;;;;;;;7.10;5.85;;;24.20;99.90;;;-141.84;49.52;20669.56;5072564;28;20296;-60
2022/06/30 06:06:44;;;;;;;9.77;7.80;;;24.40;99.90;;;-141.84;49.54;20691.91;5073083;28;20200;-59
2022/06/30 06:09:12;;;;;;;8.25;7.10;;;24.30;99.90;;;-141.84;50.13;20653.28;5072432;28;20232;-59
2022/06/30 06:11:42;;;;;;;9.02;7.53;;;24.30;99.90;;;-141.84;50.15;20641.09;5072300;28;20308;-60
2022/06/30 06:14:10;;;;;;;7.38;6.68;;;24.30;99.90;;;-141.84;50.72;20630.94;5071994;28;20278;-60
2022/06/30 06:16:38;;;;;;;10.10;7.15;;;24.20;99.90;;;-141.84;50.02;20708.19;5072310;28;20224;-59
2022/06/30 06:19:07;;;;;;;8.60;7.72;;;24.30;99.90;;;-141.84;50.58;20675.66;5072983;28;20699;-59
2022/06/30 06:21:36;;;;;;;8.63;7.43;;;24.60;99.90;;;-141.84;50.22;20748.84;5071641;28;20220;-59
2022/06/30 06:24:06;;;;;;;9.27;8.25;;;24.60;99.90;;;-141.84;50.57;20730.53;5072101;28;20228;-60
2022/06/30 06:26:34;;;;;;;8.77;7.88;;;24.80;99.90;;;-141.84;50.92;20752.91;5072047;28;20307;-58
2022/06/30 06:29:08;;;;;;;9.93;8.35;;;25.00;99.90;;;-141.84;49.84;20744.78;5072112;28;20252;-59
2022/06/30 06:31:39;;;;;;;9.10;8.20;;;25.20;99.90;;;-141.84;49.81;20732.56;5072053;28;20224;-59
2022/06/30 06:34:08;;;;;;;9.55;8.60;;;25.10;99.90;;;-141.84;50.70;20695.97;5072812;28;20247;-58
2022/06/30 06:36:36;;;;;;;9.18;8.27;;;24.90;99.90;;;-141.84;51.67;20602.47;5071785;28;20239;-61
2022/06/30 06:39:07;;;;;;;8.18;7.47;;;24.70;99.90;;;-141.84;51.84;20616.69;5072061;28;20239;-60
2022/06/30 06:41:35;;;;;;;9.60;8.10;;;24.60;99.90;;;-141.84;51.89;20635.00;5071697;28;20723;-61
2022/06/30 06:44:03;;;;;;;9.20;8.35;;;24.60;99.90;;;-141.84;51.64;20637.03;5071624;28;20311;-60
2022/06/30 06:46:32;;;;;;;8.85;8.05;;;24.70;99.90;;;-141.84;52.51;20616.69;5062212;28;20204;-59
2022/06/30 06:49:02;;;;;;;9.75;8.75;;;24.60;99.90;;;-141.84;52.43;20567.91;5052836;28;20332;-58
2022/06/30 06:51:31;;;;;;;12.15;9.45;;;24.60;99.90;;;-141.84;53.42;20533.34;5070298;28;20705;-58
2022/06/30 06:54:00;;;;;;;9.85;8.80;;;24.20;99.90;;;-141.84;53.53;20508.97;5071452;28;20690;-58
2022/06/30 06:56:30;;;;;;;11.95;8.75;;;24.20;99.90;;;-141.84;53.49;20537.44;5071712;28;20224;-59
2022/06/30 06:59:00;;;;;;;11.80;8.65;;;24.00;99.90;;;-141.84;53.67;20565.88;5071745;28;20216;-59
2022/06/30 07:01:28;;;;;;;12.50;9.80;;;24.00;99.90;;;-141.84;52.60;20559.78;5071267;28;20232;-59
2022/06/30 07:03:57;;;;;;;9.75;8.85;;;24.00;99.90;;;-141.84;53.02;20557.75;5071964;28;20219;-59
2022/06/30 07:06:25;;;;;;;8.93;8.02;;;24.00;99.90;;;-141.84;52.31;20628.91;5071041;28;20225;-59
2022/06/30 07:08:54;;;;;;;8.98;8.10;;;24.30;99.90;;;-141.84;50.52;20724.44;5071101;28;20357;-59
2022/06/30 07:11:23;;;;;;;9.18;8.27;;;24.70;99.90;;;-141.84;50.55;20742.75;5071239;28;20224;-59
2022/06/30 07:13:52;;;;;;;11.15;8.75;;;25.00;99.90;;;-141.84;50.43;20734.59;5071308;28;20227;-60
2022/06/30 07:16:21;;;;;;;9.73;8.82;;;25.00;99.90;;;-141.84;50.88;20716.31;5070687;28;20770;-59
2022/06/30 07:18:49;;;;;;;9.82;8.90;;;25.20;99.90;;;-141.84;50.91;20710.22;5071853;28;20197;-59
2022/06/30 07:21:17;;;;;;;11.07;9.77;;;25.20;99.90;;;-141.84;50.51;20761.03;5071245;28;20229;-59
2022/06/30 07:23:45;;;;;;;10.77;9.15;;;25.20;99.90;;;-141.84;50.49;20789.50;5071003;28;20232;-59
2022/06/30 07:26:13;;;;;;;10.05;9.05;;;25.50;99.90;;;-141.84;49.70;20820.00;5070877;28;20225;-60
2022/06/30 07:28:42;;;;;;;11.50;10.18;;;25.50;99.90;;;-141.84;48.27;20903.34;5070661;28;20242;-59
2022/06/30 07:31:23;;;;;;;10.50;9.38;;;25.80;99.90;;;-141.84;48.77;20862.69;5071083;28;20242;-59
2022/06/30 07:33:53;;;;;;;12.63;10.73;;;25.80;99.90;;;-141.84;49.13;20883.00;5071342;28;20189;-60
2022/06/30 07:36:21;;;;;;;10.20;9.20;;;25.70;99.90;;;-141.84;48.67;20880.97;5070495;28;20221;-59
2022/06/30 07:38:50;;;;;;;11.90;10.68;;;25.80;99.90;;;-141.84;48.46;20903.34;5070548;28;20225;-58
2022/06/30 07:41:18;;;;;;;10.52;9.52;;;26.00;99.90;;;-141.84;48.33;20937.91;5070391;28;20745;-59
2022/06/30 07:43:47;;;;;;;11.73;10.52;;;26.00;99.90;;;-141.84;48.06;20946.03;5070641;28;20312;-59
2022/06/30 07:46:16;;;;;;;10.85;9.75;;;26.10;99.90;;;-141.84;47.86;20994.81;5069908;28;20232;-61
2022/06/30 07:48:46;;;;;;;11.27;10.18;;;26.20;99.90;;;-141.84;47.50;20980.59;5071004;28;20232;-60
2022/06/30 07:51:18;;;;;;;14.02;10.85;;;26.10;99.90;;;-141.84;47.95;20980.59;5070612;28;20311;-59
2022/06/30 07:53:48;;;;;;;11.77;10.60;;;26.20;99.90;;;-141.84;47.55;20984.66;5070493;28;20303;-59
2022/06/30 07:56:17;;;;;;;10.27;9.25;;;26.10;99.90;;;-141.84;48.09;20956.19;5070351;28;20663;-60
2022/06/30 07:58:47;;;;;;;11.18;10.13;;;26.20;99.90;;;-141.84;47.55;21021.25;5069989;28;20220;-60
2022/06/30 08:01:16;;;;;;;11.00;9.90;;;26.20;99.90;;;-141.84;47.03;21055.81;5070381;28;20690;-60
2022/06/30 08:03:46;;;;;;;13.27;11.77;;;26.40;99.90;;;-141.84;45.77;21167.63;5070958;28;20227;-60
2022/06/30 08:06:14;;;;;;;12.18;10.82;;;26.70;99.90;;;-141.84;46.71;21131.03;5070460;28;20228;-58
2022/06/30 08:08:43;;;;;;;12.48;11.23;;;26.80;99.90;;;-141.84;46.14;21169.66;5070306;28;20221;-59
2022/06/30 08:11:12;;;;;;;11.55;10.48;;;27.00;99.90;;;-141.84;45.69;21181.84;5070899;28;20259;-60
2022/06/30 08:13:40;;;;;;;11.60;10.55;;;27.00;99.90;;;-141.84;46.46;21131.03;5069969;28;20244;-59
2022/06/30 08:16:08;;;;;;;11.63;10.40;;;27.10;99.90;;;-141.84;45.94;21159.50;5070368;28;20249;-60
2022/06/30 08:18:37;;;;;;;14.10;11.20;;;27.10;99.90;;;-141.84;46.21;21135.09;5070404;28;20228;-59
2022/06/30 08:21:06;;;;;;;11.48;10.35;;;26.70;99.90;;;-141.84;47.44;21043.59;5070759;28;20372;-59
2022/06/30 08:23:34;;;;;;;12.45;11.15;;;26.70;99.90;;;-141.84;47.94;21017.19;5070334;28;20246;-59
2022/06/30 08:26:03;;;;;;;12.00;10.50;;;26.60;99.90;;;-141.84;47.51;21041.56;5069883;28;20230;-60
2022/06/30 08:28:33;;;;;;;12.27;11.07;;;26.70;99.90;;;-141.84;47.96;21031.41;5070230;28;20310;-59
2022/06/30 08:31:02;;;;;;;15.15;11.90;;;26.70;99.90;;;-141.84;48.72;21000.91;5070834;28;20211;-59
2022/06/30 08:33:31;;;;;;;13.57;12.18;;;26.50;99.90;;;-141.84;48.31;20966.34;5069971;28;20224;-59
2022/06/30 08:35:59;;;;;;;12.00;10.80;;;26.50;99.90;;;-141.84;48.82;20968.38;5070121;28;20234;-58
2022/06/30 08:38:30;;;;;;;12.20;11.00;;;26.60;99.90;;;-141.84;49.15;20962.28;5070023;28;20315;-59
2022/06/30 08:43:46;;;;;;;13.13;11.73;;;26.70;99.90;;;-141.84;49.32;20921.63;5071520;28;20224;-59
2022/06/30 08:46:19;;;;;;;13.85;12.30;;;26.50;99.90;;;-141.84;49.83;20866.75;5067434;28;20232;-59
2022/06/30 08:48:47;;;;;;;13.27;11.98;;;26.40;99.90;;;-141.84;50.59;20844.38;5054530;28;20637;-59
2022/06/30 08:51:16;;;;;;;15.15;13.32;;;26.20;99.90;;;-141.84;51.00;20805.75;5054186;28;20237;-61
2022/06/30 08:53:56;;;;;;;12.60;11.30;;;26.10;99.90;;;-141.84;51.78;20765.09;5053845;28;20229;-59
2022/06/30 08:56:26;;;;;;;12.90;11.65;;;26.00;99.90;;;-141.84;52.28;20730.53;5053686;28;20229;-59
2022/06/30 08:58:55;;;;;;;14.68;13.07;;;25.80;99.90;;;-141.84;52.23;20738.66;5053814;28;20224;-59
2022/06/30 09:01:26;;;;;;;14.60;13.20;;;25.60;99.90;;;-141.84;52.73;20704.13;5053710;28;20673;-60
2022/06/30 09:03:54;;;;;;;13.77;12.38;;;25.60;99.90;;;-141.84;53.08;20710.22;5054328;28;20268;-60
2022/06/30 09:06:23;;;;;;;13.80;12.27;;;25.60;99.90;;;-141.84;53.35;20720.38;5053707;28;20229;-59
2022/06/30 09:09:07;;;;;;;13.18;11.70;;;25.60;99.90;;;-141.84;53.18;20693.94;5062641;28;20312;-58
2022/06/30 09:11:51;;;;;;;15.00;13.50;;;25.70;99.90;;;-141.84;53.26;20704.13;5073653;28;20620;-59
2022/06/30 09:14:35;;;;;;;17.05;14.00;;;25.60;99.90;;;-141.84;53.42;20695.97;5073391;28;20295;-59
2022/06/30 09:17:05;;;;;;;13.27;12.00;;;25.60;99.90;;;-141.84;54.03;20691.91;5073230;28;20310;-59
2022/06/30 09:19:37;;;;;;;14.63;13.10;;;25.50;99.90;;;-141.84;53.46;20706.16;5073698;28;20232;-59
2022/06/30 09:22:10;;;;;;;13.88;12.48;;;25.50;99.90;;;-141.84;53.93;20706.16;5074232;28;20181;-59
2022/06/30 09:24:39;;;;;;;13.10;11.80;;;25.60;99.90;;;-141.84;53.77;20695.97;5073988;28;20201;-59
2022/06/30 09:27:15;;;;;;;15.07;13.07;;;25.70;99.90;;;-141.84;51.98;20795.59;5073036;28;20236;-59
2022/06/30 09:29:49;;;;;;;15.25;13.65;;;25.90;99.90;;;-141.84;50.97;20860.66;5073309;28;20226;-59
2022/06/30 09:32:49;;;;;;;16.20;14.52;;;26.20;99.90;;;-141.84;51.33;20817.94;5072678;28;20718;-59
2022/06/30 09:35:21;;;;;;;14.13;12.60;;;26.20;99.90;;;-141.84;51.64;20838.28;5073312;28;20781;-59
2022/06/30 09:38:00;;;;;;;14.93;13.32;;;26.20;99.90;;;-141.84;51.50;20878.94;5073238;28;20228;-60
2022/06/30 09:40:33;;;;;;;14.93;13.00;;;26.20;99.90;;;-141.84;51.72;20793.56;5064703;28;20287;-60
2022/06/30 09:43:03;;;;;;;13.88;12.57;;;26.30;99.90;;;-141.84;50.92;20874.88;5073383;28;20185;-59
2022/06/30 09:45:41;;;;;;;15.95;13.98;;;26.40;99.90;;;-141.84;50.29;20944.00;5071989;28;20247;-60
2022/06/30 09:48:12;;;;;;;15.13;13.73;;;26.60;99.90;;;-141.84;50.10;20935.88;5052623;28;20261;-60
2022/06/30 09:50:40;;;;;;;15.50;14.00;;;26.70;99.90;;;-141.84;49.84;20954.16;5053244;28;20340;-58
2022/06/30 09:53:12;;;;;;;14.68;13.18;;;26.90;99.90;;;-141.84;50.40;20885.03;5052949;28;20251;-60
2022/06/30 09:55:45;;;;;;;13.98;12.55;;;26.80;99.90;;;-141.84;50.63;20921.63;5051663;28;20229;-60
2022/06/30 09:58:17;;;;;;;15.68;14.18;;;26.50;99.90;;;-141.84;49.74;20931.78;5052585;28;20285;-59
2022/06/30 10:00:51;;;;;;;14.93;13.43;;;26.70;99.90;;;-141.84;50.54;20899.28;5053409;28;20178;-59
2022/06/30 10:03:20;;;;;;;14.25;12.85;;;26.70;99.90;;;-141.84;50.26;20952.13;5052433;28;20586;-60
2022/06/30 10:05:51;;;;;;;14.10;12.60;;;26.80;99.90;;;-141.84;49.72;20964.31;5065840;28;20221;-59
2022/06/30 10:08:25;;;;;;;14.88;13.48;;;26.80;99.90;;;-141.84;49.52;20954.16;5072418;28;20221;-59
2022/06/30 10:10:55;;;;;;;14.95;13.35;;;26.90;99.90;;;-141.84;49.57;21011.09;5053021;28;20320;-60
2022/06/30 10:13:25;;;;;;;14.38;13.07;;;27.00;99.90;;;-141.84;48.67;21057.84;5051902;28;20583;-60
2022/06/30 10:15:55;;;;;;;15.90;14.27;;;27.30;99.90;;;-141.84;48.15;21098.50;5052634;28;20197;-58
2022/06/30 10:18:27;;;;;;;15.07;13.50;;;27.40;99.90;;;-141.84;47.85;21092.41;5052110;28;20716;-60
2022/06/30 10:20:56;;;;;;;15.45;13.95;;;27.40;99.90;;;-141.84;47.14;21171.69;5052690;28;20303;-59
2022/06/30 10:23:25;;;;;;;14.30;12.90;;;27.50;99.90;;;-141.84;46.80;21200.16;5052088;28;20249;-60